sensor_id;sensor_type;location;lat;lon;timestamp;P1;durP1;ratioP1;P2;durP2;ratioP2
32152;SDS011;18656;50.580;11.392;2023-04-28T00:01:38;9.95;;;5.57;;
32152;SDS011;18656;50.580;11.392;2023-04-28T00:04:05;7.50;;;5.43;;
32152;SDS011;18656;50.580;11.392;2023-04-28T00:06:33;11.52;;;5.47;;
32152;SDS011;18656;50.580;11.392;2023-04-28T00:09:01;9.25;;;5.32;;
32152;SDS011;18656;50.580;11.392;2023-04-28T00:11:29;12.70;;;5.95;;
32152;SDS011;18656;50.580;11.392;2023-04-28T00:13:56;6.47;;;5.55;;
32152;SDS011;18656;50.580;11.392;2023-04-28T00:16:23;6.35;;;5.18;;
32152;SDS011;18656;50.580;11.392;2023-04-28T00:18:51;6.75;;;5.20;;
32152;SDS011;18656;50.580;11.392;2023-04-28T00:21:18;10.13;;;5.85;;
32152;SDS011;18656;50.580;11.392;2023-04-28T00:23:45;7.72;;;4.95;;
32152;SDS011;18656;50.580;11.392;2023-04-28T00:26:13;8.55;;;5.47;;
32152;SDS011;18656;50.580;11.392;2023-04-28T00:28:41;10.02;;;5.60;;
32152;SDS011;18656;50.580;11.392;2023-04-28T00:31:09;7.88;;;5.57;;
32152;SDS011;18656;50.580;11.392;2023-04-28T00:33:38;10.57;;;5.72;;
32152;SDS011;18656;50.580;11.392;2023-04-28T00:36:06;9.77;;;5.53;;
32152;SDS011;18656;50.580;11.392;2023-04-28T00:38:33;6.68;;;5.70;;
32152;SDS011;18656;50.580;11.392;2023-04-28T00:41:01;9.07;;;5.28;;
32152;SDS011;18656;50.580;11.392;2023-04-28T00:43:29;9.40;;;5.88;;
32152;SDS011;18656;50.580;11.392;2023-04-28T00:45:56;6.85;;;5.72;;
32152;SDS011;18656;50.580;11.392;2023-04-28T00:48:24;8.02;;;4.95;;
32152;SDS011;18656;50.580;11.392;2023-04-28T00:50:51;11.20;;;6.07;;
32152;SDS011;18656;50.580;11.392;2023-04-28T00:53:19;14.93;;;6.20;;
32152;SDS011;18656;50.580;11.392;2023-04-28T00:55:46;9.10;;;6.00;;
32152;SDS011;18656;50.580;11.392;2023-04-28T00:58:13;9.02;;;5.43;;
32152;SDS011;18656;50.580;11.392;2023-04-28T01:00:41;8.90;;;5.30;;
32152;SDS011;18656;50.580;11.392;2023-04-28T01:03:08;8.27;;;5.88;;
32152;SDS011;18656;50.580;11.392;2023-04-28T01:05:36;8.20;;;5.68;;
32152;SDS011;18656;50.580;11.392;2023-04-28T01:08:03;8.10;;;5.40;;
32152;SDS011;18656;50.580;11.392;2023-04-28T01:10:31;5.47;;;5.00;;
32152;SDS011;18656;50.580;11.392;2023-04-28T01:12:58;5.70;;;5.20;;
32152;SDS011;18656;50.580;11.392;2023-04-28T01:15:26;7.95;;;4.70;;
32152;SDS011;18656;50.580;11.392;2023-04-28T01:17:54;5.97;;;5.40;;
32152;SDS011;18656;50.580;11.392;2023-04-28T01:20:21;12.18;;;5.47;;
32152;SDS011;18656;50.580;11.392;2023-04-28T01:22:49;9.20;;;5.85;;
32152;SDS011;18656;50.580;11.392;2023-04-28T01:25:16;9.15;;;5.85;;
32152;SDS011;18656;50.580;11.392;2023-04-28T01:27:44;8.65;;;5.80;;
32152;SDS011;18656;50.580;11.392;2023-04-28T01:30:11;8.60;;;6.28;;
32152;SDS011;18656;50.580;11.392;2023-04-28T01:32:38;6.20;;;5.60;;
32152;SDS011;18656;50.580;11.392;2023-04-28T01:35:06;6.38;;;5.78;;
32152;SDS011;18656;50.580;11.392;2023-04-28T01:37:33;9.65;;;5.30;;
32152;SDS011;18656;50.580;11.392;2023-04-28T01:40:00;8.65;;;5.50;;
32152;SDS011;18656;50.580;11.392;2023-04-28T01:42:28;8.57;;;5.45;;
32152;SDS011;18656;50.580;11.392;2023-04-28T01:44:55;6.75;;;5.68;;
32152;SDS011;18656;50.580;11.392;2023-04-28T01:47:22;8.00;;;5.68;;
32152;SDS011;18656;50.580;11.392;2023-04-28T01:49:50;9.38;;;5.70;;
32152;SDS011;18656;50.580;11.392;2023-04-28T01:52:17;6.70;;;5.53;;
32152;SDS011;18656;50.580;11.392;2023-04-28T01:54:47;7.25;;;5.78;;
32152;SDS011;18656;50.580;11.392;2023-04-28T01:57:15;11.43;;;6.32;;
32152;SDS011;18656;50.580;11.392;2023-04-28T01:59:43;7.28;;;6.15;;
32152;SDS011;18656;50.580;11.392;2023-04-28T02:02:10;6.53;;;5.57;;
32152;SDS011;18656;50.580;11.392;2023-04-28T02:04:38;7.00;;;5.55;;
32152;SDS011;18656;50.580;11.392;2023-04-28T02:07:05;8.77;;;5.80;;
32152;SDS011;18656;50.580;11.392;2023-04-28T02:09:33;8.63;;;5.80;;
32152;SDS011;18656;50.580;11.392;2023-04-28T02:12:01;10.70;;;6.07;;
32152;SDS011;18656;50.580;11.392;2023-04-28T02:14:28;10.45;;;6.32;;
32152;SDS011;18656;50.580;11.392;2023-04-28T02:16:58;8.07;;;6.03;;
32152;SDS011;18656;50.580;11.392;2023-04-28T02:19:26;7.55;;;6.10;;
32152;SDS011;18656;50.580;11.392;2023-04-28T02:21:53;10.18;;;5.97;;
32152;SDS011;18656;50.580;11.392;2023-04-28T02:24:21;8.80;;;6.18;;
32152;SDS011;18656;50.580;11.392;2023-04-28T02:26:48;8.15;;;5.80;;
32152;SDS011;18656;50.580;11.392;2023-04-28T02:29:15;9.75;;;6.07;;
32152;SDS011;18656;50.580;11.392;2023-04-28T02:31:43;11.00;;;5.85;;
32152;SDS011;18656;50.580;11.392;2023-04-28T02:34:10;9.27;;;6.28;;
32152;SDS011;18656;50.580;11.392;2023-04-28T02:36:38;13.23;;;6.63;;
32152;SDS011;18656;50.580;11.392;2023-04-28T02:39:05;7.32;;;6.57;;
32152;SDS011;18656;50.580;11.392;2023-04-28T02:41:33;10.32;;;6.82;;
32152;SDS011;18656;50.580;11.392;2023-04-28T02:44:00;9.48;;;6.05;;
32152;SDS011;18656;50.580;11.392;2023-04-28T02:46:28;8.80;;;5.85;;
32152;SDS011;18656;50.580;11.392;2023-04-28T02:48:55;6.93;;;6.05;;
32152;SDS011;18656;50.580;11.392;2023-04-28T02:51:22;8.77;;;6.00;;
32152;SDS011;18656;50.580;11.392;2023-04-28T02:53:50;7.28;;;5.70;;
32152;SDS011;18656;50.580;11.392;2023-04-28T02:56:18;8.52;;;5.95;;
32152;SDS011;18656;50.580;11.392;2023-04-28T02:58:45;8.48;;;5.40;;
32152;SDS011;18656;50.580;11.392;2023-04-28T03:01:12;7.13;;;5.25;;
32152;SDS011;18656;50.580;11.392;2023-04-28T03:03:40;11.25;;;5.85;;
32152;SDS011;18656;50.580;11.392;2023-04-28T03:06:08;10.60;;;5.57;;
32152;SDS011;18656;50.580;11.392;2023-04-28T03:08:37;12.27;;;5.60;;
32152;SDS011;18656;50.580;11.392;2023-04-28T03:11:05;8.52;;;5.68;;
32152;SDS011;18656;50.580;11.392;2023-04-28T03:13:32;9.30;;;5.85;;
32152;SDS011;18656;50.580;11.392;2023-04-28T03:16:04;8.18;;;5.03;;
32152;SDS011;18656;50.580;11.392;2023-04-28T03:18:31;6.30;;;5.50;;
32152;SDS011;18656;50.580;11.392;2023-04-28T03:20:58;7.07;;;5.57;;
32152;SDS011;18656;50.580;11.392;2023-04-28T03:23:27;7.15;;;5.45;;
32152;SDS011;18656;50.580;11.392;2023-04-28T03:25:54;9.40;;;5.57;;
32152;SDS011;18656;50.580;11.392;2023-04-28T03:28:21;10.18;;;5.45;;
32152;SDS011;18656;50.580;11.392;2023-04-28T03:30:49;6.55;;;5.95;;
32152;SDS011;18656;50.580;11.392;2023-04-28T03:33:16;9.45;;;6.45;;
32152;SDS011;18656;50.580;11.392;2023-04-28T03:35:44;9.18;;;6.43;;
32152;SDS011;18656;50.580;11.392;2023-04-28T03:38:11;11.07;;;6.25;;
32152;SDS011;18656;50.580;11.392;2023-04-28T03:40:38;9.45;;;7.07;;
32152;SDS011;18656;50.580;11.392;2023-04-28T03:43:07;10.15;;;6.70;;
32152;SDS011;18656;50.580;11.392;2023-04-28T03:45:34;9.95;;;6.40;;
32152;SDS011;18656;50.580;11.392;2023-04-28T03:48:01;6.60;;;5.90;;
32152;SDS011;18656;50.580;11.392;2023-04-28T03:50:29;8.00;;;5.68;;
32152;SDS011;18656;50.580;11.392;2023-04-28T03:52:56;10.40;;;6.18;;
32152;SDS011;18656;50.580;11.392;2023-04-28T03:55:24;7.97;;;6.10;;
32152;SDS011;18656;50.580;11.392;2023-04-28T03:57:51;12.75;;;6.72;;
32152;SDS011;18656;50.580;11.392;2023-04-28T04:00:19;6.85;;;5.47;;
32152;SDS011;18656;50.580;11.392;2023-04-28T04:02:46;9.82;;;6.60;;
32152;SDS011;18656;50.580;11.392;2023-04-28T04:05:14;9.02;;;5.95;;
32152;SDS011;18656;50.580;11.392;2023-04-28T04:07:41;9.60;;;6.07;;
32152;SDS011;18656;50.580;11.392;2023-04-28T04:10:09;7.25;;;5.47;;
32152;SDS011;18656;50.580;11.392;2023-04-28T04:12:36;6.93;;;5.72;;
32152;SDS011;18656;50.580;11.392;2023-04-28T04:15:04;7.05;;;6.05;;
32152;SDS011;18656;50.580;11.392;2023-04-28T04:17:32;8.00;;;6.13;;
32152;SDS011;18656;50.580;11.392;2023-04-28T04:19:59;6.82;;;6.13;;
32152;SDS011;18656;50.580;11.392;2023-04-28T04:22:27;9.18;;;6.13;;
32152;SDS011;18656;50.580;11.392;2023-04-28T04:24:54;9.88;;;6.15;;
32152;SDS011;18656;50.580;11.392;2023-04-28T04:27:21;9.30;;;6.22;;
32152;SDS011;18656;50.580;11.392;2023-04-28T04:29:49;10.10;;;5.93;;
32152;SDS011;18656;50.580;11.392;2023-04-28T04:32:16;11.10;;;6.80;;
32152;SDS011;18656;50.580;11.392;2023-04-28T04:34:44;9.90;;;6.32;;
32152;SDS011;18656;50.580;11.392;2023-04-28T04:37:11;9.40;;;6.80;;
32152;SDS011;18656;50.580;11.392;2023-04-28T04:39:39;6.78;;;6.15;;
32152;SDS011;18656;50.580;11.392;2023-04-28T04:42:06;11.57;;;6.63;;
32152;SDS011;18656;50.580;11.392;2023-04-28T04:44:49;8.67;;;6.60;;
32152;SDS011;18656;50.580;11.392;2023-04-28T04:47:18;13.98;;;7.43;;
32152;SDS011;18656;50.580;11.392;2023-04-28T04:49:46;11.45;;;6.97;;
32152;SDS011;18656;50.580;11.392;2023-04-28T04:52:14;13.88;;;7.20;;
32152;SDS011;18656;50.580;11.392;2023-04-28T04:54:42;12.57;;;7.35;;
32152;SDS011;18656;50.580;11.392;2023-04-28T04:57:09;9.15;;;6.97;;
32152;SDS011;18656;50.580;11.392;2023-04-28T04:59:37;26.95;;;9.00;;
32152;SDS011;18656;50.580;11.392;2023-04-28T05:02:04;54.28;;;8.73;;
32152;SDS011;18656;50.580;11.392;2023-04-28T05:04:33;19.35;;;7.20;;
32152;SDS011;18656;50.580;11.392;2023-04-28T05:07:05;21.60;;;7.55;;
32152;SDS011;18656;50.580;11.392;2023-04-28T05:09:33;14.05;;;6.90;;
32152;SDS011;18656;50.580;11.392;2023-04-28T05:12:00;10.73;;;6.55;;
32152;SDS011;18656;50.580;11.392;2023-04-28T05:14:28;13.73;;;5.50;;
32152;SDS011;18656;50.580;11.392;2023-04-28T05:16:55;16.75;;;7.07;;
32152;SDS011;18656;50.580;11.392;2023-04-28T05:19:23;9.43;;;6.47;;
32152;SDS011;18656;50.580;11.392;2023-04-28T05:21:50;16.30;;;8.13;;
32152;SDS011;18656;50.580;11.392;2023-04-28T05:24:20;14.95;;;7.15;;
32152;SDS011;18656;50.580;11.392;2023-04-28T05:26:52;13.65;;;7.30;;
32152;SDS011;18656;50.580;11.392;2023-04-28T05:29:20;18.30;;;7.90;;
32152;SDS011;18656;50.580;11.392;2023-04-28T05:31:48;17.27;;;8.57;;
32152;SDS011;18656;50.580;11.392;2023-04-28T05:34:16;14.52;;;8.02;;
32152;SDS011;18656;50.580;11.392;2023-04-28T05:36:44;13.90;;;8.77;;
32152;SDS011;18656;50.580;11.392;2023-04-28T05:39:12;19.13;;;9.52;;
32152;SDS011;18656;50.580;11.392;2023-04-28T05:41:40;14.43;;;8.77;;
32152;SDS011;18656;50.580;11.392;2023-04-28T05:44:08;13.68;;;8.85;;
32152;SDS011;18656;50.580;11.392;2023-04-28T05:46:35;14.73;;;9.00;;
32152;SDS011;18656;50.580;11.392;2023-04-28T05:49:03;11.80;;;8.63;;
32152;SDS011;18656;50.580;11.392;2023-04-28T05:51:32;11.10;;;9.07;;
32152;SDS011;18656;50.580;11.392;2023-04-28T05:53:59;12.05;;;9.45;;
32152;SDS011;18656;50.580;11.392;2023-04-28T05:56:27;12.32;;;9.30;;
32152;SDS011;18656;50.580;11.392;2023-04-28T05:58:54;11.73;;;8.70;;
32152;SDS011;18656;50.580;11.392;2023-04-28T06:01:22;12.60;;;8.55;;
32152;SDS011;18656;50.580;11.392;2023-04-28T06:03:49;16.90;;;9.52;;
32152;SDS011;18656;50.580;11.392;2023-04-28T06:06:19;13.15;;;9.00;;
32152;SDS011;18656;50.580;11.392;2023-04-28T06:08:47;16.42;;;10.45;;
32152;SDS011;18656;50.580;11.392;2023-04-28T06:11:14;13.98;;;10.30;;
32152;SDS011;18656;50.580;11.392;2023-04-28T06:13:42;14.13;;;10.02;;
32152;SDS011;18656;50.580;11.392;2023-04-28T06:16:09;12.73;;;10.00;;
32152;SDS011;18656;50.580;11.392;2023-04-28T06:18:37;16.58;;;9.35;;
32152;SDS011;18656;50.580;11.392;2023-04-28T06:21:04;16.30;;;9.00;;
32152;SDS011;18656;50.580;11.392;2023-04-28T06:23:31;13.30;;;9.40;;
32152;SDS011;18656;50.580;11.392;2023-04-28T06:25:59;17.38;;;10.48;;
32152;SDS011;18656;50.580;11.392;2023-04-28T06:28:26;17.02;;;9.20;;
32152;SDS011;18656;50.580;11.392;2023-04-28T06:30:54;15.48;;;9.90;;
32152;SDS011;18656;50.580;11.392;2023-04-28T06:33:21;17.73;;;9.63;;
32152;SDS011;18656;50.580;11.392;2023-04-28T06:35:49;19.20;;;10.80;;
32152;SDS011;18656;50.580;11.392;2023-04-28T06:38:16;15.82;;;9.95;;
32152;SDS011;18656;50.580;11.392;2023-04-28T06:40:43;16.70;;;10.02;;
32152;SDS011;18656;50.580;11.392;2023-04-28T06:43:11;10.98;;;9.00;;
32152;SDS011;18656;50.580;11.392;2023-04-28T06:45:38;14.60;;;9.32;;
32152;SDS011;18656;50.580;11.392;2023-04-28T06:48:05;14.25;;;9.95;;
32152;SDS011;18656;50.580;11.392;2023-04-28T06:50:33;16.65;;;10.40;;
32152;SDS011;18656;50.580;11.392;2023-04-28T06:53:00;13.27;;;10.25;;
32152;SDS011;18656;50.580;11.392;2023-04-28T06:55:28;19.80;;;10.70;;
32152;SDS011;18656;50.580;11.392;2023-04-28T06:57:55;15.75;;;12.02;;
32152;SDS011;18656;50.580;11.392;2023-04-28T07:00:22;22.13;;;14.52;;
32152;SDS011;18656;50.580;11.392;2023-04-28T07:02:50;20.02;;;12.68;;
32152;SDS011;18656;50.580;11.392;2023-04-28T07:05:17;19.58;;;12.43;;
32152;SDS011;18656;50.580;11.392;2023-04-28T07:07:45;20.92;;;17.30;;
32152;SDS011;18656;50.580;11.392;2023-04-28T07:10:13;30.33;;;22.75;;
32152;SDS011;18656;50.580;11.392;2023-04-28T07:12:41;25.63;;;18.40;;
32152;SDS011;18656;50.580;11.392;2023-04-28T07:15:08;22.38;;;15.60;;
32152;SDS011;18656;50.580;11.392;2023-04-28T07:17:36;17.98;;;14.27;;
32152;SDS011;18656;50.580;11.392;2023-04-28T07:20:04;19.02;;;12.75;;
32152;SDS011;18656;50.580;11.392;2023-04-28T07:22:32;21.35;;;13.18;;
32152;SDS011;18656;50.580;11.392;2023-04-28T07:24:59;21.08;;;14.30;;
32152;SDS011;18656;50.580;11.392;2023-04-28T07:27:26;21.40;;;14.50;;
32152;SDS011;18656;50.580;11.392;2023-04-28T07:29:53;18.95;;;14.20;;
32152;SDS011;18656;50.580;11.392;2023-04-28T07:32:20;23.52;;;16.27;;
32152;SDS011;18656;50.580;11.392;2023-04-28T07:34:48;21.75;;;12.32;;
32152;SDS011;18656;50.580;11.392;2023-04-28T07:37:17;19.42;;;13.15;;
32152;SDS011;18656;50.580;11.392;2023-04-28T07:39:44;22.70;;;14.90;;
32152;SDS011;18656;50.580;11.392;2023-04-28T07:42:12;24.58;;;16.45;;
32152;SDS011;18656;50.580;11.392;2023-04-28T07:44:39;30.95;;;23.27;;
32152;SDS011;18656;50.580;11.392;2023-04-28T07:47:07;24.52;;;16.20;;
32152;SDS011;18656;50.580;11.392;2023-04-28T07:49:34;24.58;;;14.98;;
32152;SDS011;18656;50.580;11.392;2023-04-28T07:52:01;21.70;;;13.52;;
32152;SDS011;18656;50.580;11.392;2023-04-28T07:54:29;19.60;;;12.98;;
32152;SDS011;18656;50.580;11.392;2023-04-28T07:56:56;23.33;;;16.70;;
32152;SDS011;18656;50.580;11.392;2023-04-28T07:59:23;20.35;;;16.58;;
32152;SDS011;18656;50.580;11.392;2023-04-28T08:01:50;24.98;;;15.70;;
32152;SDS011;18656;50.580;11.392;2023-04-28T08:04:17;22.00;;;15.57;;
32152;SDS011;18656;50.580;11.392;2023-04-28T08:06:45;23.20;;;17.30;;
32152;SDS011;18656;50.580;11.392;2023-04-28T08:09:13;20.02;;;15.18;;
32152;SDS011;18656;50.580;11.392;2023-04-28T08:11:40;17.77;;;14.73;;
32152;SDS011;18656;50.580;11.392;2023-04-28T08:14:08;17.70;;;11.77;;
32152;SDS011;18656;50.580;11.392;2023-04-28T08:16:35;15.20;;;11.82;;
32152;SDS011;18656;50.580;11.392;2023-04-28T08:19:05;14.45;;;10.52;;
32152;SDS011;18656;50.580;11.392;2023-04-28T08:21:33;10.40;;;9.35;;
32152;SDS011;18656;50.580;11.392;2023-04-28T08:24:00;14.10;;;9.82;;
32152;SDS011;18656;50.580;11.392;2023-04-28T08:26:27;10.43;;;9.25;;
32152;SDS011;18656;50.580;11.392;2023-04-28T08:28:55;15.50;;;10.27;;
32152;SDS011;18656;50.580;11.392;2023-04-28T08:31:22;16.40;;;10.70;;
32152;SDS011;18656;50.580;11.392;2023-04-28T08:33:49;17.60;;;12.02;;
32152;SDS011;18656;50.580;11.392;2023-04-28T08:36:16;20.88;;;14.80;;
32152;SDS011;18656;50.580;11.392;2023-04-28T08:38:44;15.23;;;12.02;;
32152;SDS011;18656;50.580;11.392;2023-04-28T08:41:13;16.33;;;11.10;;
32152;SDS011;18656;50.580;11.392;2023-04-28T08:43:41;16.30;;;10.77;;
32152;SDS011;18656;50.580;11.392;2023-04-28T08:46:08;13.02;;;10.38;;
32152;SDS011;18656;50.580;11.392;2023-04-28T08:48:40;16.13;;;11.75;;
32152;SDS011;18656;50.580;11.392;2023-04-28T08:51:08;17.25;;;10.80;;
32152;SDS011;18656;50.580;11.392;2023-04-28T08:53:36;14.07;;;10.50;;
32152;SDS011;18656;50.580;11.392;2023-04-28T08:56:23;13.82;;;9.68;;
32152;SDS011;18656;50.580;11.392;2023-04-28T08:58:53;15.98;;;9.23;;
32152;SDS011;18656;50.580;11.392;2023-04-28T09:01:20;11.05;;;8.52;;
32152;SDS011;18656;50.580;11.392;2023-04-28T09:03:49;12.68;;;8.43;;
32152;SDS011;18656;50.580;11.392;2023-04-28T09:06:16;9.40;;;8.48;;
32152;SDS011;18656;50.580;11.392;2023-04-28T09:08:44;12.07;;;8.55;;
32152;SDS011;18656;50.580;11.392;2023-04-28T09:11:11;14.18;;;9.40;;
32152;SDS011;18656;50.580;11.392;2023-04-28T09:13:39;12.57;;;10.32;;
32152;SDS011;18656;50.580;11.392;2023-04-28T09:16:07;14.98;;;10.27;;
32152;SDS011;18656;50.580;11.392;2023-04-28T09:18:34;15.43;;;12.18;;
32152;SDS011;18656;50.580;11.392;2023-04-28T09:21:02;13.10;;;11.15;;
32152;SDS011;18656;50.580;11.392;2023-04-28T09:23:29;21.38;;;12.50;;
32152;SDS011;18656;50.580;11.392;2023-04-28T09:26:05;21.85;;;14.32;;
32152;SDS011;18656;50.580;11.392;2023-04-28T09:28:33;23.65;;;15.68;;
32152;SDS011;18656;50.580;11.392;2023-04-28T09:31:01;24.90;;;15.63;;
32152;SDS011;18656;50.580;11.392;2023-04-28T09:33:29;21.08;;;14.77;;
32152;SDS011;18656;50.580;11.392;2023-04-28T09:35:56;19.52;;;15.70;;
32152;SDS011;18656;50.580;11.392;2023-04-28T09:38:24;21.13;;;15.30;;
32152;SDS011;18656;50.580;11.392;2023-04-28T09:40:52;24.58;;;16.20;;
32152;SDS011;18656;50.580;11.392;2023-04-28T09:45:54;28.25;;;21.45;;
32152;SDS011;18656;50.580;11.392;2023-04-28T09:48:28;18.20;;;14.38;;
32152;SDS011;18656;50.580;11.392;2023-04-28T09:50:56;17.35;;;11.13;;
32152;SDS011;18656;50.580;11.392;2023-04-28T09:53:25;18.67;;;9.82;;
32152;SDS011;18656;50.580;11.392;2023-04-28T09:55:53;10.75;;;6.93;;
32152;SDS011;18656;50.580;11.392;2023-04-28T09:58:21;9.00;;;7.10;;
32152;SDS011;18656;50.580;11.392;2023-04-28T10:00:50;9.80;;;7.22;;
32152;SDS011;18656;50.580;11.392;2023-04-28T10:03:20;8.95;;;7.25;;
32152;SDS011;18656;50.580;11.392;2023-04-28T10:05:50;9.43;;;7.97;;
32152;SDS011;18656;50.580;11.392;2023-04-28T10:08:22;9.10;;;7.07;;
32152;SDS011;18656;50.580;11.392;2023-04-28T10:10:50;10.57;;;7.20;;
32152;SDS011;18656;50.580;11.392;2023-04-28T10:13:20;8.65;;;6.55;;
32152;SDS011;18656;50.580;11.392;2023-04-28T10:15:48;6.97;;;6.28;;
32152;SDS011;18656;50.580;11.392;2023-04-28T10:18:15;7.68;;;6.70;;
32152;SDS011;18656;50.580;11.392;2023-04-28T10:20:52;10.80;;;6.47;;
32152;SDS011;18656;50.580;11.392;2023-04-28T10:23:24;7.05;;;5.97;;
32152;SDS011;18656;50.580;11.392;2023-04-28T10:28:25;10.38;;;6.78;;
32152;SDS011;18656;50.580;11.392;2023-04-28T10:31:12;8.32;;;5.90;;
32152;SDS011;18656;50.580;11.392;2023-04-28T10:33:40;10.18;;;6.85;;
32152;SDS011;18656;50.580;11.392;2023-04-28T10:36:08;7.25;;;6.43;;
32152;SDS011;18656;50.580;11.392;2023-04-28T10:38:35;8.07;;;5.90;;
32152;SDS011;18656;50.580;11.392;2023-04-28T10:41:31;9.57;;;6.15;;
32152;SDS011;18656;50.580;11.392;2023-04-28T10:43:58;7.13;;;5.88;;
32152;SDS011;18656;50.580;11.392;2023-04-28T10:46:25;7.95;;;5.93;;
32152;SDS011;18656;50.580;11.392;2023-04-28T10:48:53;8.27;;;5.90;;
32152;SDS011;18656;50.580;11.392;2023-04-28T10:51:20;7.38;;;5.63;;
32152;SDS011;18656;50.580;11.392;2023-04-28T10:56:21;15.38;;;6.07;;
32152;SDS011;18656;50.580;11.392;2023-04-28T10:58:54;13.23;;;8.32;;
32152;SDS011;18656;50.580;11.392;2023-04-28T11:16:58;8.18;;;4.97;;
32152;SDS011;18656;50.580;11.392;2023-04-28T11:19:27;5.70;;;5.07;;
32152;SDS011;18656;50.580;11.392;2023-04-28T11:21:55;5.22;;;4.22;;
32152;SDS011;18656;50.580;11.392;2023-04-28T11:24:23;4.75;;;4.35;;
32152;SDS011;18656;50.580;11.392;2023-04-28T11:26:50;4.00;;;3.65;;
32152;SDS011;18656;50.580;11.392;2023-04-28T11:29:29;5.88;;;3.90;;
32152;SDS011;18656;50.580;11.392;2023-04-28T11:31:57;4.75;;;3.83;;
32152;SDS011;18656;50.580;11.392;2023-04-28T11:34:24;5.50;;;3.60;;
32152;SDS011;18656;50.580;11.392;2023-04-28T11:36:51;3.40;;;3.10;;
32152;SDS011;18656;50.580;11.392;2023-04-28T11:39:30;3.70;;;3.22;;
32152;SDS011;18656;50.580;11.392;2023-04-28T11:41:58;4.47;;;3.20;;
32152;SDS011;18656;50.580;11.392;2023-04-28T11:44:27;6.78;;;3.53;;
32152;SDS011;18656;50.580;11.392;2023-04-28T11:46:55;4.85;;;2.95;;
32152;SDS011;18656;50.580;11.392;2023-04-28T11:49:26;2.92;;;2.67;;
32152;SDS011;18656;50.580;11.392;2023-04-28T11:51:54;2.97;;;2.70;;
32152;SDS011;18656;50.580;11.392;2023-04-28T11:54:26;3.33;;;2.55;;
32152;SDS011;18656;50.580;11.392;2023-04-28T11:56:54;2.38;;;2.17;;
32152;SDS011;18656;50.580;11.392;2023-04-28T11:59:35;3.03;;;2.80;;
32152;SDS011;18656;50.580;11.392;2023-04-28T12:02:05;2.78;;;2.53;;
32152;SDS011;18656;50.580;11.392;2023-04-28T12:04:39;2.60;;;2.40;;
32152;SDS011;18656;50.580;11.392;2023-04-28T12:07:11;2.50;;;2.40;;
32152;SDS011;18656;50.580;11.392;2023-04-28T12:12:10;4.25;;;2.38;;
32152;SDS011;18656;50.580;11.392;2023-04-28T12:14:54;2.50;;;2.40;;
32152;SDS011;18656;50.580;11.392;2023-04-28T12:17:23;6.88;;;2.50;;
32152;SDS011;18656;50.580;11.392;2023-04-28T12:19:50;2.50;;;2.40;;
32152;SDS011;18656;50.580;11.392;2023-04-28T12:22:18;2.38;;;2.15;;
32152;SDS011;18656;50.580;11.392;2023-04-28T12:24:45;3.30;;;2.63;;
32152;SDS011;18656;50.580;11.392;2023-04-28T12:27:12;3.30;;;2.58;;
32152;SDS011;18656;50.580;11.392;2023-04-28T12:29:41;2.47;;;2.28;;
32152;SDS011;18656;50.580;11.392;2023-04-28T12:32:09;6.18;;;2.38;;
32152;SDS011;18656;50.580;11.392;2023-04-28T12:34:38;2.53;;;2.28;;
32152;SDS011;18656;50.580;11.392;2023-04-28T12:37:05;2.42;;;2.17;;
32152;SDS011;18656;50.580;11.392;2023-04-28T12:39:33;2.53;;;1.90;;
32152;SDS011;18656;50.580;11.392;2023-04-28T12:42:04;5.85;;;1.85;;
32152;SDS011;18656;50.580;11.392;2023-04-28T12:44:32;2.22;;;2.10;;
32152;SDS011;18656;50.580;11.392;2023-04-28T12:47:07;3.35;;;1.85;;
32152;SDS011;18656;50.580;11.392;2023-04-28T12:49:36;2.83;;;1.70;;
32152;SDS011;18656;50.580;11.392;2023-04-28T12:52:04;6.22;;;2.05;;
32152;SDS011;18656;50.580;11.392;2023-04-28T12:54:32;1.63;;;1.52;;
32152;SDS011;18656;50.580;11.392;2023-04-28T12:57:00;1.92;;;1.67;;
32152;SDS011;18656;50.580;11.392;2023-04-28T12:59:28;2.67;;;1.83;;
32152;SDS011;18656;50.580;11.392;2023-04-28T13:01:56;1.80;;;1.70;;
32152;SDS011;18656;50.580;11.392;2023-04-28T13:04:24;2.33;;;2.13;;
32152;SDS011;18656;50.580;11.392;2023-04-28T13:06:52;2.08;;;1.98;;
32152;SDS011;18656;50.580;11.392;2023-04-28T13:09:19;2.30;;;1.83;;
32152;SDS011;18656;50.580;11.392;2023-04-28T13:11:46;2.10;;;2.00;;
32152;SDS011;18656;50.580;11.392;2023-04-28T13:14:14;2.22;;;2.08;;
32152;SDS011;18656;50.580;11.392;2023-04-28T13:16:41;2.20;;;2.05;;
32152;SDS011;18656;50.580;11.392;2023-04-28T13:19:08;2.42;;;2.33;;
32152;SDS011;18656;50.580;11.392;2023-04-28T13:21:39;2.45;;;2.05;;
32152;SDS011;18656;50.580;11.392;2023-04-28T13:24:07;5.38;;;2.70;;
32152;SDS011;18656;50.580;11.392;2023-04-28T13:26:35;2.10;;;2.00;;
32152;SDS011;18656;50.580;11.392;2023-04-28T13:29:03;3.90;;;2.42;;
32152;SDS011;18656;50.580;11.392;2023-04-28T13:31:30;4.57;;;2.40;;
32152;SDS011;18656;50.580;11.392;2023-04-28T13:33:58;3.35;;;2.47;;
32152;SDS011;18656;50.580;11.392;2023-04-28T13:36:27;2.70;;;2.50;;
32152;SDS011;18656;50.580;11.392;2023-04-28T13:38:55;2.25;;;2.15;;
32152;SDS011;18656;50.580;11.392;2023-04-28T13:41:22;3.13;;;2.30;;
32152;SDS011;18656;50.580;11.392;2023-04-28T13:43:50;2.53;;;2.30;;
32152;SDS011;18656;50.580;11.392;2023-04-28T13:46:19;2.20;;;2.10;;
32152;SDS011;18656;50.580;11.392;2023-04-28T13:48:47;3.28;;;2.25;;
32152;SDS011;18656;50.580;11.392;2023-04-28T13:51:15;2.28;;;2.17;;
32152;SDS011;18656;50.580;11.392;2023-04-28T13:53:42;3.08;;;2.13;;
32152;SDS011;18656;50.580;11.392;2023-04-28T13:56:10;2.92;;;2.72;;
32152;SDS011;18656;50.580;11.392;2023-04-28T13:58:37;4.15;;;3.50;;
32152;SDS011;18656;50.580;11.392;2023-04-28T14:01:04;2.65;;;2.55;;
32152;SDS011;18656;50.580;11.392;2023-04-28T14:03:33;2.38;;;2.17;;
32152;SDS011;18656;50.580;11.392;2023-04-28T14:06:01;2.28;;;2.17;;
32152;SDS011;18656;50.580;11.392;2023-04-28T14:08:29;4.05;;;2.30;;
32152;SDS011;18656;50.580;11.392;2023-04-28T14:10:56;4.40;;;2.80;;
32152;SDS011;18656;50.580;11.392;2023-04-28T14:13:24;2.72;;;2.40;;
32152;SDS011;18656;50.580;11.392;2023-04-28T14:15:51;3.08;;;2.78;;
32152;SDS011;18656;50.580;11.392;2023-04-28T14:18:25;9.93;;;3.63;;
32152;SDS011;18656;50.580;11.392;2023-04-28T14:20:52;3.25;;;3.05;;
32152;SDS011;18656;50.580;11.392;2023-04-28T14:23:22;3.47;;;3.17;;
32152;SDS011;18656;50.580;11.392;2023-04-28T14:25:51;2.60;;;2.45;;
32152;SDS011;18656;50.580;11.392;2023-04-28T14:28:23;3.60;;;3.38;;
32152;SDS011;18656;50.580;11.392;2023-04-28T14:30:52;3.08;;;2.78;;
32152;SDS011;18656;50.580;11.392;2023-04-28T14:33:19;14.02;;;5.38;;
32152;SDS011;18656;50.580;11.392;2023-04-28T14:35:46;4.60;;;3.15;;
32152;SDS011;18656;50.580;11.392;2023-04-28T14:38:13;3.30;;;3.00;;
32152;SDS011;18656;50.580;11.392;2023-04-28T14:40:45;3.15;;;2.90;;
32152;SDS011;18656;50.580;11.392;2023-04-28T14:43:12;4.15;;;2.85;;
32152;SDS011;18656;50.580;11.392;2023-04-28T14:45:39;3.60;;;3.30;;
32152;SDS011;18656;50.580;11.392;2023-04-28T14:48:07;3.40;;;3.10;;
32152;SDS011;18656;50.580;11.392;2023-04-28T14:50:35;3.60;;;3.17;;
32152;SDS011;18656;50.580;11.392;2023-04-28T14:53:03;3.45;;;3.05;;
32152;SDS011;18656;50.580;11.392;2023-04-28T14:55:32;4.47;;;3.75;;
32152;SDS011;18656;50.580;11.392;2023-04-28T14:58:00;3.80;;;3.40;;